createdAt,value
2024-04-13T00:00:06.412Z,100361.03
2024-04-13T00:02:42.608Z,100364.38
2024-04-13T00:05:12.255Z,100362.41
2024-04-13T00:07:39.205Z,100357.31
2024-04-13T00:10:06.702Z,100351.25
2024-04-13T00:12:34.747Z,100350.47
2024-04-13T00:15:01.736Z,100352.59
2024-04-13T00:17:28.774Z,100348.31
2024-04-13T00:19:55.681Z,100349.25
2024-04-13T00:22:22.556Z,100356.34
2024-04-13T00:24:49.425Z,100365.97
2024-04-13T00:27:17.708Z,100366.03
2024-04-13T00:29:45.223Z,100362.47
2024-04-13T00:32:12.195Z,100368.69
2024-04-13T00:34:39.097Z,100372.13
2024-04-13T00:37:05.995Z,100371.19
2024-04-13T00:39:33.345Z,100368.47
2024-04-13T00:42:00.394Z,100364.16
2024-04-13T00:44:27.340Z,100362.44
2024-04-13T00:47:06.159Z,100366.06
2024-04-13T00:49:34.807Z,100365.16
2024-04-13T00:52:02.281Z,100366.97
2024-04-13T00:54:30.836Z,100359.19
2024-04-13T00:56:59.432Z,100367.66
2024-04-13T00:59:27.406Z,100367.81
2024-04-13T01:01:55.295Z,100362.78
2024-04-13T01:04:22.813Z,100366.31
2024-04-13T01:06:52.993Z,100370.66
2024-04-13T01:09:21.497Z,100363.38
2024-04-13T01:11:49.098Z,100365.19
2024-04-13T01:14:18.293Z,100366.31
2024-04-13T01:16:45.332Z,100368.13
2024-04-13T01:19:13.222Z,100374.38
2024-04-13T01:21:41.041Z,100373.44
2024-04-13T01:24:08.923Z,100368.25
2024-04-13T01:26:39.731Z,100363.88
2024-04-13T01:29:07.614Z,100367.44
2024-04-13T01:31:39.319Z,100363.88
2024-04-13T01:34:07.209Z,100353.34
2024-04-13T01:36:38.192Z,100360.34
2024-04-13T01:39:10.600Z,100363.78
2024-04-13T01:41:43.236Z,100361.00
2024-04-13T01:44:11.309Z,100355.94
2024-04-13T01:46:38.147Z,100362.91
2024-04-13T01:49:06.171Z,100362.78
2024-04-13T01:51:33.968Z,100360.97
2024-04-13T01:54:01.557Z,100367.91
2024-04-13T01:56:28.801Z,100368.59
2024-04-13T01:58:56.163Z,100372.03
2024-04-13T02:01:23.486Z,100371.97
2024-04-13T02:03:51.145Z,100365.72
2024-04-13T02:06:18.202Z,100357.78
2024-04-13T02:08:45.189Z,100352.44
2024-04-13T02:11:12.068Z,100355.63
2024-04-13T02:13:39.230Z,100352.06
2024-04-13T02:16:06.386Z,100354.75
2024-04-13T02:18:33.479Z,100353.09
2024-04-13T02:21:00.639Z,100354.75
2024-04-13T02:23:27.652Z,100357.34
2024-04-13T02:25:55.035Z,100354.53
2024-04-13T02:28:21.969Z,100356.88
2024-04-13T02:30:48.836Z,100359.66
2024-04-13T02:33:16.334Z,100351.06
2024-04-13T02:35:43.524Z,100347.19
2024-04-13T02:38:10.412Z,100346.28
2024-04-13T02:40:38.794Z,100351.38
2024-04-13T02:43:05.724Z,100349.94
2024-04-13T02:45:32.636Z,100343.88
2024-04-13T02:47:59.567Z,100336.00
2024-04-13T02:50:26.434Z,100334.41
2024-04-13T02:52:58.319Z,100327.38
2024-04-13T02:55:25.223Z,100332.78
2024-04-13T02:57:52.072Z,100326.22
2024-04-13T03:00:19.036Z,100327.94
2024-04-13T03:02:45.922Z,100334.03
2024-04-13T03:05:13.599Z,100334.06
2024-04-13T03:07:40.529Z,100336.19
2024-04-13T03:10:08.020Z,100345.16
2024-04-13T03:12:34.971Z,100341.72
2024-04-13T03:15:02.173Z,100333.09
2024-04-13T03:17:30.772Z,100326.31
2024-04-13T03:19:57.665Z,100327.28
2024-04-13T03:22:24.525Z,100328.16
2024-04-13T03:24:51.435Z,100321.28
2024-04-13T03:27:18.842Z,100329.09
2024-04-13T03:29:45.786Z,100323.00
2024-04-13T03:32:12.665Z,100323.16
2024-04-13T03:34:39.572Z,100319.78
2024-04-13T03:37:08.915Z,100325.03
2024-04-13T03:39:35.866Z,100322.44
2024-04-13T03:42:02.888Z,100320.75
2024-04-13T03:44:29.786Z,100320.75
2024-04-13T03:46:56.640Z,100317.28
2024-04-13T03:49:23.884Z,100315.63
2024-04-13T03:51:52.733Z,100319.09
2024-04-13T03:54:19.651Z,100315.69
2024-04-13T03:56:46.538Z,100317.50
2024-04-13T03:59:14.405Z,100318.41
2024-04-13T04:01:41.365Z,100314.06
2024-04-13T04:04:08.283Z,100314.97
2024-04-13T04:06:38.787Z,100320.13
2024-04-13T04:09:06.207Z,100323.69
2024-04-13T04:11:33.123Z,100321.19
2024-04-13T04:13:59.986Z,100316.00
2024-04-13T04:16:26.907Z,100317.66
2024-04-13T04:18:53.913Z,100316.91
2024-04-13T04:21:21.795Z,100320.34
2024-04-13T04:23:48.772Z,100322.19
2024-04-13T04:26:15.676Z,100318.72
2024-04-13T04:28:43.558Z,100310.84
2024-04-13T04:31:13.544Z,100313.34
2024-04-13T04:33:40.730Z,100312.59
2024-04-13T04:36:10.267Z,100312.69
2024-04-13T04:38:37.457Z,100302.22
2024-04-13T04:41:04.577Z,100288.22
2024-04-13T04:43:31.424Z,100292.66
2024-04-13T04:45:58.240Z,100299.59
2024-04-13T04:48:25.508Z,100304.81
2024-04-13T04:50:59.885Z,100314.38
2024-04-13T04:53:29.492Z,100311.78
2024-04-13T04:55:59.423Z,100307.44
2024-04-13T04:58:27.018Z,100316.09
2024-04-13T05:00:54.022Z,100318.69
2024-04-13T05:03:21.022Z,100321.25
2024-04-13T05:05:47.926Z,100331.72
2024-04-13T05:08:14.842Z,100331.63
2024-04-13T05:10:42.092Z,100333.34
2024-04-13T05:13:09.524Z,100335.03
2024-04-13T05:15:37.229Z,100341.88
2024-04-13T05:18:05.484Z,100342.69
2024-04-13T05:20:32.988Z,100344.28
2024-04-13T05:22:59.983Z,100341.38
2024-04-13T05:25:27.292Z,100336.72
2024-04-13T05:27:54.849Z,100344.31
2024-04-13T05:30:21.831Z,100352.16
2024-04-13T05:32:48.946Z,100361.63
2024-04-13T05:35:19.611Z,100362.69
2024-04-13T05:37:46.609Z,100356.38
2024-04-13T05:40:14.730Z,100363.25
2024-04-13T05:42:41.873Z,100365.81
2024-04-13T05:45:09.063Z,100364.28
2024-04-13T05:47:36.114Z,100359.72
2024-04-13T05:50:04.087Z,100356.72
2024-04-13T05:52:31.076Z,100357.03
2024-04-13T05:54:58.043Z,100362.03
2024-04-13T05:57:25.005Z,100361.38
2024-04-13T05:59:51.848Z,100361.03
2024-04-13T06:02:19.154Z,100356.53
2024-04-13T06:05:00.214Z,100357.53
2024-04-13T06:07:27.071Z,100365.72
2024-04-13T06:09:53.936Z,100370.41
2024-04-13T06:12:21.039Z,100367.78
2024-04-13T06:14:51.621Z,100366.03
2024-04-13T06:17:18.610Z,100357.25
2024-04-13T06:19:46.031Z,100358.69
2024-04-13T06:22:12.895Z,100353.53
2024-04-13T06:24:39.929Z,100361.50
2024-04-13T06:27:06.885Z,100369.44
2024-04-13T06:29:33.827Z,100371.06
2024-04-13T06:32:00.803Z,100370.53
2024-04-13T06:34:27.876Z,100371.22
2024-04-13T06:36:54.870Z,100372.66
2024-04-13T06:39:21.809Z,100378.84
2024-04-13T06:41:48.702Z,100377.88
2024-04-13T06:44:15.742Z,100369.31
2024-04-13T06:46:42.751Z,100372.41
2024-04-13T06:49:09.826Z,100373.53
2024-04-13T06:51:36.735Z,100369.56
2024-04-13T06:54:03.753Z,100368.84
2024-04-13T06:56:31.712Z,100363.53
2024-04-13T06:58:58.605Z,100368.84
2024-04-13T07:01:25.521Z,100366.91
2024-04-13T07:03:52.525Z,100365.06
2024-04-13T07:06:19.546Z,100353.25
2024-04-13T07:08:46.574Z,100346.06
2024-04-13T07:11:13.471Z,100347.78
2024-04-13T07:13:40.407Z,100350.22
2024-04-13T07:16:07.765Z,100340.38
2024-04-13T07:18:34.909Z,100339.84
2024-04-13T07:21:02.379Z,100329.44
2024-04-13T07:23:29.269Z,100331.97
2024-04-13T07:26:00.403Z,100332.75
2024-04-13T07:28:28.199Z,100333.06
2024-04-13T07:30:55.199Z,100332.41
2024-04-13T07:33:22.452Z,100329.47
2024-04-13T07:35:49.577Z,100330.88
2024-04-13T07:38:16.451Z,100329.72
2024-04-13T07:40:43.627Z,100327.75
2024-04-13T07:43:10.528Z,100324.22
2024-04-13T07:45:37.499Z,100322.44
2024-04-13T07:48:04.825Z,100318.34
2024-04-13T07:50:31.930Z,100307.22
2024-04-13T07:52:58.888Z,100307.00
2024-04-13T07:55:25.855Z,100305.50
2024-04-13T07:57:53.499Z,100306.22
2024-04-13T08:00:20.415Z,100309.06
2024-04-13T08:02:47.417Z,100307.63
2024-04-13T08:05:14.474Z,100304.97
2024-04-13T08:07:41.359Z,100300.44
2024-04-13T08:10:11.704Z,100301.03
2024-04-13T08:12:39.201Z,100301.09
2024-04-13T08:15:10.056Z,100295.88
2024-04-13T08:17:37.107Z,100291.75
2024-04-13T08:20:05.729Z,100289.19
2024-04-13T08:22:32.723Z,100284.63
2024-04-13T08:24:59.776Z,100285.25
2024-04-13T08:27:27.616Z,100287.28
2024-04-13T08:29:55.111Z,100289.25
2024-04-13T08:32:22.105Z,100278.81
2024-04-13T08:34:49.254Z,100289.00
2024-04-13T08:37:16.208Z,100290.38
2024-04-13T08:39:43.183Z,100282.53
2024-04-13T08:42:12.263Z,100275.56
2024-04-13T08:44:41.964Z,100268.19
2024-04-13T08:47:11.238Z,100271.84
2024-04-13T08:49:41.197Z,100266.38
2024-04-13T08:52:08.903Z,100262.97
2024-04-13T08:54:36.752Z,100257.66
2024-04-13T08:57:09.392Z,100256.53
2024-04-13T08:59:38.416Z,100247.28
2024-04-13T09:02:11.058Z,100243.00
2024-04-13T09:04:39.771Z,100251.34
2024-04-13T09:07:06.716Z,100242.44
2024-04-13T09:09:36.367Z,100249.91
2024-04-13T09:12:03.732Z,100244.28
2024-04-13T09:14:30.815Z,100244.19
2024-04-13T09:20:59.882Z,100241.59
2024-04-13T09:26:59.340Z,100249.22
2024-04-13T09:30:15.819Z,100242.84
2024-04-13T09:36:14.281Z,100229.00
2024-04-13T09:39:09.356Z,100225.63
2024-04-13T09:42:21.555Z,100222.38
2024-04-13T09:45:38.281Z,100224.44
2024-04-13T09:48:20.088Z,100220.63
2024-04-13T09:51:13.142Z,100221.50
2024-04-13T09:53:40.999Z,100226.09
2024-04-13T09:56:25.721Z,100226.19
2024-04-13T09:58:55.225Z,100217.78
2024-04-13T10:01:22.298Z,100215.19
2024-04-13T10:03:50.185Z,100212.94
2024-04-13T10:06:17.793Z,100215.44
2024-04-13T10:08:45.545Z,100216.72
2024-04-13T10:11:15.180Z,100201.06
2024-04-13T10:13:45.755Z,100208.94
2024-04-13T10:16:13.904Z,100200.34
2024-04-13T10:18:40.951Z,100194.44
2024-04-13T10:21:07.973Z,100202.09
2024-04-13T10:23:49.182Z,100191.47
2024-04-13T10:26:44.549Z,100193.41
2024-04-13T10:29:26.603Z,100186.75
2024-04-13T10:31:54.349Z,100193.16
2024-04-13T10:34:27.798Z,100185.13
2024-04-13T10:36:59.476Z,100193.50
2024-04-13T10:39:26.601Z,100190.75
2024-04-13T10:41:54.793Z,100183.19
2024-04-13T10:44:26.709Z,100187.00
2024-04-13T10:46:53.718Z,100182.06
2024-04-13T10:49:21.985Z,100179.53
2024-04-13T10:51:49.105Z,100172.91
2024-04-13T10:54:16.343Z,100166.66
2024-04-13T10:56:45.738Z,100170.41
2024-04-13T10:59:19.708Z,100164.09
2024-04-13T11:03:11.975Z,100158.25
2024-04-13T11:11:31.002Z,100156.78
2024-04-13T11:17:15.827Z,100140.44
2024-04-13T11:19:43.821Z,100140.56
2024-04-13T11:22:17.843Z,100137.75
2024-04-13T11:25:05.588Z,100122.44
2024-04-13T11:27:35.718Z,100126.13
2024-04-13T11:30:03.275Z,100124.38
2024-04-13T11:32:31.942Z,100115.50
2024-04-13T11:34:58.866Z,100115.16
2024-04-13T11:37:26.166Z,100105.69
2024-04-13T11:39:53.472Z,100101.09
2024-04-13T11:42:26.916Z,100099.88
2024-04-13T11:45:00.972Z,100090.25
2024-04-13T11:47:28.147Z,100095.84
2024-04-13T11:49:55.391Z,100084.13
2024-04-13T11:52:22.688Z,100078.78
2024-04-13T11:54:49.845Z,100077.34
2024-04-13T11:57:17.940Z,100070.53
2024-04-13T11:59:46.914Z,100073.50
2024-04-13T12:02:13.990Z,100070.09
2024-04-13T12:04:44.193Z,100067.47
2024-04-13T12:07:13.808Z,100056.84
2024-04-13T12:09:41.452Z,100052.00
2024-04-13T12:12:09.123Z,100054.44
2024-04-13T12:14:44.044Z,100046.16
2024-04-13T12:17:18.074Z,100043.63
2024-04-13T12:19:45.831Z,100031.22
2024-04-13T12:22:12.767Z,100033.53
2024-04-13T12:24:39.699Z,100020.97
2024-04-13T12:27:06.980Z,100027.47
2024-04-13T12:29:33.900Z,100025.38
2024-04-13T12:32:01.432Z,100023.44
2024-04-13T12:34:28.559Z,100021.81
2024-04-13T12:36:55.686Z,100028.81
2024-04-13T12:39:22.638Z,100017.84
2024-04-13T12:41:49.578Z,100010.56
2024-04-13T12:44:16.484Z,99999.41
2024-04-13T12:46:44.546Z,99997.63
2024-04-13T12:49:11.631Z,99991.09
2024-04-13T12:51:38.666Z,99991.72
2024-04-13T12:54:05.652Z,99980.47
2024-04-13T12:56:32.805Z,99976.09
2024-04-13T12:58:59.781Z,99971.28
2024-04-13T13:01:28.095Z,99967.19
2024-04-13T13:03:55.190Z,99970.44
2024-04-13T13:06:22.576Z,99965.69
2024-04-13T13:08:49.535Z,99957.31
2024-04-13T13:11:16.566Z,99964.38
2024-04-13T13:13:43.436Z,99956.50
2024-04-13T13:16:10.369Z,99950.88
2024-04-13T13:18:37.571Z,99947.59
2024-04-13T13:21:05.636Z,99948.41
2024-04-13T13:23:33.680Z,99940.09
2024-04-13T13:26:00.769Z,99935.81
2024-04-13T13:28:28.054Z,99930.84
2024-04-13T13:30:55.122Z,99918.34
2024-04-13T13:33:22.218Z,99933.53
2024-04-13T13:36:36.274Z,99920.44
2024-04-13T13:45:24.950Z,99897.28
2024-04-13T13:48:18.070Z,99888.94
2024-04-13T13:53:33.445Z,99897.06
2024-04-13T13:56:10.857Z,99886.59
2024-04-13T13:59:10.849Z,99890.31
2024-04-13T14:06:11.749Z,99873.63
2024-04-13T14:16:36.434Z,99848.41
2024-04-13T14:19:05.376Z,99845.38
2024-04-13T14:21:44.074Z,99840.66
2024-04-13T14:24:21.743Z,99831.50
2024-04-13T14:26:55.008Z,99828.78
2024-04-13T14:29:43.732Z,99828.19
2024-04-13T14:33:02.480Z,99831.13
2024-04-13T14:35:58.493Z,99820.72
2024-04-13T14:38:29.544Z,99819.38
2024-04-13T14:46:46.138Z,99814.50
2024-04-13T14:49:13.068Z,99805.50
2024-04-13T14:51:40.133Z,99805.00
2024-04-13T14:54:07.663Z,99810.84
2024-04-13T14:56:37.334Z,99808.59
2024-04-13T14:59:04.320Z,99818.25
2024-04-13T15:01:31.510Z,99816.00
2024-04-13T15:03:58.753Z,99802.72
2024-04-13T15:06:26.213Z,99805.00
2024-04-13T15:08:53.203Z,99796.03
2024-04-13T15:11:27.424Z,99791.53
2024-04-13T15:17:23.490Z,99776.59
2024-04-13T15:20:21.111Z,99775.03
2024-04-13T15:23:05.116Z,99771.16
2024-04-13T15:25:46.654Z,99765.00
2024-04-13T15:28:25.350Z,99753.78
2024-04-13T15:30:56.884Z,99747.00
2024-04-13T15:33:24.949Z,99757.69
2024-04-13T15:35:54.547Z,99742.66
2024-04-13T15:38:40.816Z,99736.44
2024-04-13T15:41:58.459Z,99731.75
2024-04-13T15:45:27.700Z,99744.25
2024-04-13T15:48:08.662Z,99730.47
2024-04-13T15:50:39.224Z,99734.16
2024-04-13T15:53:06.253Z,99723.38
2024-04-13T15:55:33.185Z,99715.78
2024-04-13T15:58:00.339Z,99712.59
2024-04-13T16:00:27.647Z,99715.34
2024-04-13T16:02:57.040Z,99702.56
2024-04-13T16:05:23.980Z,99705.75
2024-04-13T16:07:50.956Z,99698.66
2024-04-13T16:10:18.315Z,99702.69
2024-04-13T16:12:47.080Z,99695.88
2024-04-13T16:15:14.115Z,99697.81
2024-04-13T16:17:41.013Z,99684.59
2024-04-13T16:20:08.581Z,99690.59
2024-04-13T16:22:35.520Z,99685.06
2024-04-13T16:25:02.564Z,99682.31
2024-04-13T16:27:29.553Z,99675.00
2024-04-13T16:29:56.505Z,99672.59
2024-04-13T16:32:23.668Z,99672.09
2024-04-13T16:34:50.576Z,99678.53
2024-04-13T16:37:17.483Z,99667.22
2024-04-13T16:39:44.354Z,99662.66
2024-04-13T16:42:11.299Z,99661.72
2024-04-13T16:44:38.210Z,99659.56
2024-04-13T16:47:05.330Z,99659.75
2024-04-13T16:49:32.360Z,99657.97
2024-04-13T16:51:59.381Z,99656.81
2024-04-13T16:54:26.398Z,99659.28
2024-04-13T16:56:53.590Z,99659.22
2024-04-13T16:59:21.636Z,99660.09
2024-04-13T17:01:48.609Z,99652.84
2024-04-13T17:04:15.674Z,99651.97
2024-04-13T17:06:43.543Z,99648.91
2024-04-13T17:09:11.149Z,99646.47
2024-04-13T17:11:38.105Z,99651.00
2024-04-13T17:14:04.975Z,99648.56
2024-04-13T17:16:32.468Z,99646.13
2024-04-13T17:18:59.588Z,99648.63
2024-04-13T17:21:26.507Z,99645.88
2024-04-13T17:23:53.461Z,99646.47
2024-04-13T17:26:20.416Z,99636.53
2024-04-13T17:28:47.436Z,99631.06
2024-04-13T17:31:14.627Z,99636.91
2024-04-13T17:33:41.681Z,99632.59
2024-04-13T17:36:09.996Z,99627.25
2024-04-13T17:38:38.244Z,99626.03
2024-04-13T17:41:05.274Z,99618.47
2024-04-13T17:43:32.249Z,99616.09
2024-04-13T17:46:01.702Z,99617.94
2024-04-13T17:48:28.924Z,99617.94
2024-04-13T17:51:02.947Z,99605.66
2024-04-13T17:54:06.790Z,99601.50
2024-04-13T17:57:06.655Z,99602.63
2024-04-13T17:59:40.818Z,99596.50
2024-04-13T18:02:08.039Z,99588.75
2024-04-13T18:04:39.503Z,99586.78
2024-04-13T18:14:32.626Z,99589.84
2024-04-13T18:16:59.807Z,99582.75
2024-04-13T18:19:26.835Z,99583.75
2024-04-13T18:21:54.057Z,99580.31
2024-04-13T18:24:21.124Z,99588.56
2024-04-13T18:26:48.030Z,99588.84
2024-04-13T18:29:15.088Z,99590.69
2024-04-13T18:31:44.293Z,99586.69
2024-04-13T18:34:12.164Z,99590.75
2024-04-13T18:36:39.446Z,99582.28
2024-04-13T18:39:06.745Z,99583.34
2024-04-13T18:41:37.741Z,99587.03
2024-04-13T18:44:08.312Z,99581.03
2024-04-13T18:46:36.864Z,99577.72
2024-04-13T18:49:03.836Z,99578.94
2024-04-13T18:51:30.756Z,99573.81
2024-04-13T18:53:57.698Z,99577.38
2024-04-13T18:56:24.673Z,99588.06
2024-04-13T18:58:51.669Z,99587.03
2024-04-13T19:01:18.948Z,99581.84
2024-04-13T19:03:46.073Z,99588.28
2024-04-13T19:06:13.129Z,99585.63
2024-04-13T19:08:40.092Z,99591.94
2024-04-13T19:11:07.121Z,99590.91
2024-04-13T19:13:34.144Z,99589.91
2024-04-13T19:16:09.232Z,99586.78
2024-04-13T19:18:38.427Z,99592.31
2024-04-13T19:21:06.370Z,99593.09
2024-04-13T19:23:33.495Z,99596.91
2024-04-13T19:26:03.374Z,99596.66
2024-04-13T19:28:30.337Z,99593.31
2024-04-13T19:30:57.385Z,99591.84
2024-04-13T19:33:24.919Z,99594.34
2024-04-13T19:35:52.717Z,99593.09
2024-04-13T19:38:19.902Z,99596.03
2024-04-13T19:40:52.217Z,99597.03
2024-04-13T19:43:20.203Z,99596.22
2024-04-13T19:45:48.407Z,99591.16
2024-04-13T19:48:15.676Z,99591.25
2024-04-13T19:50:42.694Z,99586.72
2024-04-13T19:53:11.160Z,99583.19
2024-04-13T19:55:38.231Z,99587.53
2024-04-13T19:58:05.524Z,99583.06
2024-04-13T20:00:35.706Z,99571.03
2024-04-13T20:03:02.700Z,99575.13
2024-04-13T20:05:36.780Z,99569.16
2024-04-13T20:08:04.129Z,99565.94
2024-04-13T20:10:31.196Z,99566.88
2024-04-13T20:12:58.722Z,99557.91
2024-04-13T20:15:44.340Z,99559.53
2024-04-13T20:18:30.203Z,99562.25
2024-04-13T20:20:57.248Z,99564.06
2024-04-13T20:23:24.208Z,99556.41
2024-04-13T20:25:51.153Z,99557.41
2024-04-13T20:28:18.169Z,99556.69
2024-04-13T20:30:45.426Z,99559.66
2024-04-13T20:33:12.452Z,99556.03
2024-04-13T20:35:39.630Z,99553.50
2024-04-13T20:38:07.637Z,99560.53
2024-04-13T20:40:34.570Z,99554.94
2024-04-13T20:43:01.694Z,99555.00
2024-04-13T20:45:29.242Z,99567.44
2024-04-13T20:47:56.241Z,99569.22
2024-04-13T20:50:23.246Z,99564.00
2024-04-13T20:52:57.024Z,99562.16
2024-04-13T20:55:28.450Z,99562.31
2024-04-13T20:57:55.528Z,99562.44
2024-04-13T21:00:23.078Z,99565.09
2024-04-13T21:02:50.051Z,99567.03
2024-04-13T21:05:17.750Z,99562.53
2024-04-13T21:07:44.977Z,99554.75
2024-04-13T21:10:12.484Z,99559.81
2024-04-13T21:12:39.526Z,99562.75
2024-04-13T21:15:06.812Z,99560.03
2024-04-13T21:17:33.768Z,99561.19
2024-04-13T21:20:00.687Z,99559.47
2024-04-13T21:22:27.704Z,99564.13
2024-04-13T21:24:58.535Z,99551.69
2024-04-13T21:27:26.124Z,99552.78
2024-04-13T21:29:53.239Z,99552.06
2024-04-13T21:32:20.786Z,99545.22
2024-04-13T21:34:49.950Z,99543.38
2024-04-13T21:37:17.763Z,99541.50
2024-04-13T21:39:44.904Z,99551.06
2024-04-13T21:42:11.943Z,99546.78
2024-04-13T21:44:38.877Z,99548.13
2024-04-13T21:47:06.174Z,99546.38
2024-04-13T21:49:33.046Z,99544.50
2024-04-13T21:51:59.946Z,99538.75
2024-04-13T21:54:26.931Z,99537.19
2024-04-13T21:56:53.838Z,99539.69
2024-04-13T21:59:20.823Z,99527.38
2024-04-13T22:01:47.674Z,99522.69
2024-04-13T22:04:14.702Z,99518.56
2024-04-13T22:06:42.126Z,99516.63
2024-04-13T22:09:09.244Z,99513.13
2024-04-13T22:11:36.458Z,99518.47
2024-04-13T22:14:03.339Z,99508.16
2024-04-13T22:16:30.292Z,99513.38
2024-04-13T22:19:02.402Z,99511.56
2024-04-13T22:21:30.367Z,99512.66
2024-04-13T22:23:58.683Z,99519.56
2024-04-13T22:26:25.859Z,99509.03
2024-04-13T22:28:53.175Z,99505.56
2024-04-13T22:31:20.119Z,99513.38
2024-04-13T22:33:47.312Z,99509.03
2024-04-13T22:36:14.493Z,99517.94
2024-04-13T22:38:41.452Z,99518.94
2024-04-13T22:41:08.354Z,99515.56
2024-04-13T22:43:35.905Z,99522.00
2024-04-13T22:46:03.679Z,99533.63
2024-04-13T22:48:31.027Z,99522.00
2024-04-13T22:51:01.601Z,99524.97
2024-04-13T22:53:28.978Z,99518.50
2024-04-13T22:55:57.435Z,99513.94
2024-04-13T22:58:24.631Z,99522.19
2024-04-13T23:00:58.023Z,99518.78
2024-04-13T23:03:25.010Z,99524.19
2024-04-13T23:05:59.382Z,99522.63
2024-04-13T23:08:27.083Z,99530.53
2024-04-13T23:10:55.287Z,99530.81
2024-04-13T23:13:22.396Z,99529.94
2024-04-13T23:15:50.592Z,99521.78
2024-04-13T23:18:19.624Z,99516.84
2024-04-13T23:20:47.661Z,99510.78
2024-04-13T23:23:15.261Z,99518.16
2024-04-13T23:25:42.226Z,99513.50
2024-04-13T23:28:09.110Z,99515.19
2024-04-13T23:30:36.073Z,99511.06
2024-04-13T23:33:03.087Z,99507.06
2024-04-13T23:35:30.393Z,99512.53
2024-04-13T23:37:57.393Z,99513.25
2024-04-13T23:40:24.347Z,99502.00
2024-04-13T23:42:51.951Z,99498.66
2024-04-13T23:45:19.648Z,99499.38
2024-04-13T23:47:46.653Z,99500.09
2024-04-13T23:50:15.312Z,99490.28
2024-04-13T23:52:42.232Z,99484.19
2024-04-13T23:55:09.139Z,99491.03
2024-04-13T23:57:37.762Z,99492.69
